createdAt,value
2023-05-24T00:02:50.154Z,32.3
2023-05-24T00:08:27.628Z,32.3
2023-05-24T00:14:18.883Z,32.3
2023-05-24T00:19:56.760Z,32.3
2023-05-24T00:25:49.465Z,32.3
2023-05-24T00:31:41.612Z,32.2
2023-05-24T00:37:17.750Z,32.2
2023-05-24T00:43:09.889Z,32.2
2023-05-24T00:49:01.811Z,32.2
2023-05-24T00:54:54.713Z,32.2
2023-05-24T01:00:31.674Z,32.2
2023-05-24T01:06:25.040Z,32.2
2023-05-24T01:12:19.385Z,32.1
2023-05-24T01:18:10.951Z,32.1
2023-05-24T01:24:02.387Z,32.1
2023-05-24T01:29:53.545Z,32.1
2023-05-24T01:41:22.347Z,32.1
2023-05-24T01:46:58.466Z,32.1
2023-05-24T01:52:50.560Z,32.1
2023-05-24T01:58:41.847Z,32.1
2023-05-24T02:04:34.532Z,32.1
2023-05-24T02:10:09.904Z,32.1
2023-05-24T02:16:01.363Z,32.1
2023-05-24T02:21:53.481Z,32
2023-05-24T02:27:29.563Z,32
2023-05-24T02:33:21.341Z,32
2023-05-24T02:39:12.515Z,32
2023-05-24T02:45:03.782Z,32
2023-05-24T02:50:55.795Z,31.9
2023-05-24T02:56:32.794Z,31.9
2023-05-24T03:02:24.305Z,31.9
2023-05-24T03:08:16.877Z,31.9
2023-05-24T03:14:10.548Z,31.9
2023-05-24T03:20:01.704Z,31.9
2023-05-24T03:25:53.899Z,31.9
2023-05-24T03:31:45.331Z,31.9
2023-05-24T03:37:36.284Z,31.8
2023-05-24T03:43:28.499Z,31.9
2023-05-24T03:49:34.570Z,31.8
2023-05-24T03:55:26.709Z,31.8
2023-05-24T04:01:32.438Z,31.8
2023-05-24T04:07:25.074Z,31.8
2023-05-24T04:12:45.757Z,31.8
2023-05-24T04:18:38.586Z,31.8
2023-05-24T04:24:30.838Z,31.8
2023-05-24T04:30:22.773Z,31.8
2023-05-24T04:36:15.363Z,31.7
2023-05-24T04:42:06.984Z,31.7
2023-05-24T04:47:58.958Z,31.7
2023-05-24T04:53:50.943Z,31.7
2023-05-24T04:59:44.902Z,31.7
2023-05-24T05:05:21.595Z,31.6
2023-05-24T05:11:14.172Z,31.6
2023-05-24T05:17:06.237Z,31.6
2023-05-24T05:22:58.894Z,31.6
2023-05-24T05:28:35.544Z,31.6
2023-05-24T05:34:12.062Z,31.6
2023-05-24T05:39:50.922Z,31.6
2023-05-24T05:45:43.006Z,31.6
2023-05-24T05:51:20.007Z,31.6
2023-05-24T05:57:10.653Z,31.5
2023-05-24T06:03:02.829Z,31.5
2023-05-24T06:08:56.246Z,31.5
2023-05-24T06:14:49.575Z,31.5
2023-05-24T06:20:52.831Z,31.5
2023-05-24T06:26:43.501Z,31.4
2023-05-24T06:32:35.513Z,31.4
2023-05-24T06:38:35.144Z,31.4
2023-05-24T06:44:25.739Z,31.2
2023-05-24T06:50:17.849Z,31.4
2023-05-24T06:56:12.623Z,31.3
2023-05-24T07:02:05.006Z,31.3
2023-05-24T07:07:56.692Z,31.8
2023-05-24T07:13:33.446Z,32.2
2023-05-24T07:19:24.936Z,32.2
2023-05-24T07:25:19.756Z,32.7
2023-05-24T07:31:09.530Z,33.7
2023-05-24T07:36:49.401Z,33.8
2023-05-24T07:42:25.644Z,34
2023-05-24T07:48:03.022Z,34.9
2023-05-24T07:53:54.756Z,35.8
2023-05-24T07:59:46.199Z,36.5
2023-05-24T08:05:23.939Z,37.2
2023-05-24T08:11:15.432Z,37.9
2023-05-24T08:16:51.775Z,38.6
2023-05-24T08:22:44.608Z,39.3
2023-05-24T08:28:39.815Z,40.1
2023-05-24T08:34:33.188Z,40.9
2023-05-24T08:40:24.201Z,41.7
2023-05-24T08:46:12.654Z,42.4
2023-05-24T08:52:07.263Z,43.1
2023-05-24T08:57:59.983Z,43.8
2023-05-24T09:03:21.589Z,44.5
2023-05-24T09:08:44.091Z,45.1
2023-05-24T09:15:01.929Z,45.9
2023-05-24T09:20:57.372Z,46.6
2023-05-24T09:26:37.375Z,47.3
2023-05-24T09:32:30.530Z,47.9
2023-05-24T09:38:06.909Z,48.6
2023-05-24T09:43:59.493Z,49.3
2023-05-24T09:49:20.959Z,49.9
2023-05-24T09:54:59.054Z,50.6
2023-05-24T10:00:50.985Z,51.3
2023-05-24T10:06:58.946Z,51.9
2023-05-24T10:12:51.530Z,52.5
2023-05-24T10:42:03.296Z,53.1
2023-05-24T10:47:55.468Z,55.9
2023-05-24T10:53:31.455Z,56.4
2023-05-24T10:58:47.160Z,56.9
2023-05-24T11:04:31.020Z,57.4
2023-05-24T11:14:42.531Z,58.1
2023-05-24T11:20:07.040Z,58
2023-05-24T11:25:27.800Z,58.1
2023-05-24T11:31:04.289Z,58.4
2023-05-24T11:36:47.319Z,58.7
2023-05-24T11:42:33.562Z,59.1
2023-05-24T11:48:10.804Z,59.5
2023-05-24T11:53:58.240Z,59.9
2023-05-24T11:59:34.739Z,60.3
2023-05-24T12:05:16.351Z,60.7
2023-05-24T12:10:55.833Z,60.9
2023-05-24T12:22:40.694Z,61.6
2023-05-24T12:28:18.048Z,61.9
2023-05-24T12:33:55.692Z,62.2
2023-05-24T12:39:32.243Z,62.5
2023-05-24T12:45:43.062Z,62.8
2023-05-24T12:51:18.989Z,63
2023-05-24T12:56:56.170Z,63.3
2023-05-24T13:02:33.849Z,63.4
2023-05-24T13:07:55.557Z,63.6
2023-05-24T13:13:17.001Z,63.6
2023-05-24T13:18:54.844Z,63.4
2023-05-24T13:24:46.056Z,63.3
2023-05-24T13:30:50.674Z,62.9
2023-05-24T13:36:14.993Z,62.7
2023-05-24T13:41:50.622Z,62.4
2023-05-24T13:47:16.437Z,62.2
2023-05-24T13:52:48.081Z,61.9
2023-05-24T13:58:13.165Z,61.8
2023-05-24T14:03:34.309Z,61.6
2023-05-24T14:09:26.565Z,61.4
2023-05-24T14:16:23.424Z,61.2
2023-05-24T14:21:44.908Z,61.1
2023-05-24T14:27:06.716Z,60.9
2023-05-24T14:32:27.941Z,60.8
2023-05-24T14:37:48.790Z,60.6
2023-05-24T14:43:28.359Z,60.4
2023-05-24T14:49:05.361Z,60.3
2023-05-24T14:54:40.911Z,60.2
2023-05-24T15:00:19.882Z,60.1
2023-05-24T15:05:58.073Z,59.9
2023-05-24T15:11:34.305Z,59.9
2023-05-24T15:17:10.920Z,59.8
2023-05-24T15:22:46.840Z,59.6
2023-05-24T15:28:26.133Z,59.6
2023-05-24T15:34:03.916Z,59.4
2023-05-24T15:39:41.258Z,59.4
2023-05-24T15:45:16.887Z,59.3
2023-05-24T15:52:20.629Z,59.3
2023-05-24T15:58:10.686Z,59.1
2023-05-24T16:04:02.029Z,59.1
2023-05-24T16:09:39.141Z,59
2023-05-24T16:15:17.771Z,58.9
2023-05-24T16:21:11.926Z,58.8
2023-05-24T16:27:06.923Z,58.8
2023-05-24T16:33:00.191Z,58.7
2023-05-24T16:39:09.705Z,58.6
2023-05-24T16:50:38.652Z,58.4
2023-05-24T16:56:29.583Z,58.4
2023-05-24T17:02:25.195Z,58.3
2023-05-24T17:08:20.602Z,58.3
2023-05-24T17:14:11.372Z,58.2
2023-05-24T17:20:04.137Z,58.1
2023-05-24T17:25:40.216Z,58.1
2023-05-24T17:31:35.410Z,58
2023-05-24T17:37:27.697Z,57.9
2023-05-24T17:43:18.979Z,57.9
2023-05-24T18:00:46.210Z,57.6
2023-05-24T18:06:41.274Z,57.6
2023-05-24T18:12:34.800Z,57.5
2023-05-24T18:18:27.175Z,57.4
2023-05-24T18:24:18.681Z,57.4
2023-05-24T18:30:16.310Z,57.3
2023-05-24T18:36:11.206Z,57.3
2023-05-24T18:42:02.986Z,57.1
2023-05-24T18:47:41.262Z,56.9
2023-05-24T18:53:33.174Z,56.8
2023-05-24T18:58:53.583Z,56.6
2023-05-24T19:04:48.649Z,56.5
2023-05-24T19:10:26.231Z,56.4
2023-05-24T19:16:18.549Z,56.2
2023-05-24T19:22:12.063Z,56.1
2023-05-24T19:28:11.452Z,56
2023-05-24T19:33:59.071Z,55.9
2023-05-24T19:39:20.993Z,55.8
2023-05-24T19:45:12.234Z,55.8
2023-05-24T19:51:05.491Z,55.6
2023-05-24T19:56:42.799Z,55.6
2023-05-24T20:02:19.456Z,55.5
2023-05-24T20:07:57.471Z,55.4
2023-05-24T20:13:34.468Z,55.4
2023-05-24T20:18:55.931Z,55.3
2023-05-24T20:24:31.977Z,55.3
2023-05-24T20:30:21.769Z,55.2
2023-05-24T20:35:58.450Z,55.2
2023-05-24T20:41:34.056Z,55.1
2023-05-24T20:47:11.378Z,55.1
2023-05-24T20:52:50.098Z,55
2023-05-24T20:58:26.716Z,54.9
2023-05-24T21:04:06.856Z,54.9
2023-05-24T21:09:43.528Z,54.8
2023-05-24T21:15:04.633Z,54.8
2023-05-24T21:20:26.766Z,54.8
2023-05-24T21:25:47.164Z,54.7
2023-05-24T21:31:23.322Z,54.6
2023-05-24T21:37:00.434Z,54.6
2023-05-24T21:48:12.844Z,54.5
2023-05-24T21:54:05.043Z,54.5
2023-05-24T21:59:59.934Z,54.4
2023-05-24T22:05:52.540Z,54.4
2023-05-24T22:11:44.197Z,54.3
2023-05-24T22:17:35.787Z,54.3
2023-05-24T22:23:35.303Z,54.2
2023-05-24T22:29:29.738Z,54.1
2023-05-24T22:35:05.802Z,54.1
2023-05-24T22:40:57.353Z,54.1
2023-05-24T22:46:19.034Z,54
2023-05-24T22:52:10.412Z,53.9
